Time;durP1;ratioP1;P1;durP2;ratioP2;P2;SDS_P1;SDS_P2;PMS_P1;PMS_P2;Temp;Humidity;BMP_temperature;BMP_pressure;BME280_temperature;BME280_humidity;BME280_pressure;Samples;Min_cycle;Max_cycle;Signal;HPM_P1;HPM_P2
2021/05/29 00:00:01;;;;;;;1.88;0.30;;;20.70;58.10;20.30;99695.00;;;;342044;28;96919;-87
2021/05/29 00:00:14;;;;;;;1.45;0.35;;;20.70;58.20;20.30;99693.00;;;;341310;28;84720;-87
2021/05/29 00:00:26;;;;;;;1.10;0.30;;;20.70;58.30;20.10;99687.00;;;;341057;28;96723;-87
2021/05/29 00:00:38;;;;;;;1.20;0.30;;;20.60;58.20;20.10;99694.00;;;;342631;28;84834;-87
2021/05/29 00:00:50;;;;;;;3.10;0.30;;;20.60;58.30;20.10;99691.00;;;;342015;28;96546;-87
2021/05/29 00:01:03;;;;;;;3.30;0.30;;;20.60;58.70;20.10;99691.00;;;;339235;28;85338;-88
2021/05/29 00:01:15;;;;;;;2.03;0.30;;;20.50;58.70;20.30;99696.00;;;;341104;28;95959;-87
2021/05/29 00:01:27;;;;;;;0.82;0.30;;;20.50;58.60;20.20;99688.00;;;;340386;28;84245;-87
2021/05/29 00:01:39;;;;;;;0.90;0.38;;;20.50;59.40;20.20;99691.00;;;;342504;28;95071;-87
2021/05/29 00:01:51;;;;;;;1.17;0.40;;;20.50;58.70;20.20;99684.00;;;;344562;28;84350;-87
2021/05/29 00:02:04;;;;;;;1.30;0.50;;;20.50;58.50;20.20;99680.00;;;;338605;28;96745;-87
2021/05/29 00:02:16;;;;;;;1.30;0.43;;;20.50;58.60;20.40;99694.00;;;;341657;28;82532;-87
2021/05/29 00:02:28;;;;;;;1.67;0.40;;;20.50;58.60;20.30;99693.00;;;;338652;28;94802;-87
2021/05/29 00:02:40;;;;;;;1.50;0.40;;;20.40;58.70;20.30;99691.00;;;;340421;28;82543;-88
2021/05/29 00:02:53;;;;;;;3.08;0.40;;;20.40;58.50;20.30;99687.00;;;;339592;28;97075;-87
2021/05/29 00:03:05;;;;;;;2.60;0.30;;;20.50;58.50;20.40;99695.00;;;;342676;28;85308;-86
2021/05/29 00:03:17;;;;;;;1.67;0.32;;;20.40;59.10;20.40;99692.00;;;;341186;28;93047;-87
2021/05/29 00:03:29;;;;;;;1.63;0.40;;;20.50;58.60;20.40;99692.00;;;;344393;28;84808;-87
2021/05/29 00:03:40;;;;;;;2.45;0.40;;;20.50;58.60;20.40;99688.00;;;;340014;28;94880;-87
2021/05/29 00:03:52;;;;;;;2.35;0.32;;;20.50;58.70;20.30;99680.00;;;;341955;28;85771;-87
2021/05/29 00:04:04;;;;;;;1.10;0.30;;;20.50;59.10;20.20;99691.00;;;;345289;28;92560;-87
2021/05/29 00:04:16;;;;;;;1.23;0.30;;;20.40;59.20;20.30;99685.00;;;;341753;28;82407;-87
2021/05/29 00:04:28;;;;;;;2.20;0.50;;;20.40;59.10;20.40;99686.00;;;;342550;28;95116;-87
2021/05/29 00:04:40;;;;;;;2.22;0.50;;;20.40;58.90;20.40;99688.00;;;;340218;28;84473;-87
2021/05/29 00:04:52;;;;;;;1.90;0.50;;;20.40;58.80;20.40;99684.00;;;;341119;28;96594;-87
2021/05/29 00:05:05;;;;;;;1.23;0.30;;;20.40;58.90;20.50;99689.00;;;;342053;28;84899;-87
2021/05/29 00:05:17;;;;;;;0.73;0.28;;;20.40;58.80;20.40;99682.00;;;;339738;28;92174;-87
2021/05/29 00:05:28;;;;;;;1.80;0.22;;;20.40;58.70;20.40;99690.00;;;;339109;28;83578;-87
2021/05/29 00:05:41;;;;;;;2.10;0.30;;;20.40;59.20;20.50;99684.00;;;;342387;28;95657;-87
2021/05/29 00:05:53;;;;;;;1.92;0.40;;;20.40;58.60;20.40;99686.00;;;;343392;28;83334;-87
2021/05/29 00:06:04;;;;;;;1.65;0.30;;;20.40;58.80;20.40;99689.00;;;;339941;28;95925;-87
2021/05/29 00:06:16;;;;;;;1.75;0.40;;;20.40;58.70;20.40;99686.00;;;;339197;28;84626;-87
2021/05/29 00:06:28;;;;;;;1.95;0.40;;;20.40;58.70;20.40;99693.00;;;;339876;28;94195;-88
2021/05/29 00:06:40;;;;;;;1.67;0.40;;;20.40;58.60;20.40;99693.00;;;;340918;28;84484;-88
2021/05/29 00:06:52;;;;;;;1.70;0.30;;;20.50;58.60;20.40;99688.00;;;;342589;28;93234;-86
2021/05/29 00:07:04;;;;;;;2.22;0.40;;;20.40;58.60;20.50;99684.00;;;;343157;28;83359;-88
2021/05/29 00:07:16;;;;;;;2.42;0.40;;;20.50;58.60;20.30;99684.00;;;;340868;28;96625;-87
2021/05/29 00:07:28;;;;;;;1.65;0.30;;;20.50;58.90;20.20;99688.00;;;;341553;28;84726;-87
2021/05/29 00:07:40;;;;;;;1.92;0.40;;;20.40;58.90;20.30;99684.00;;;;340906;28;94444;-87
2021/05/29 00:07:52;;;;;;;2.17;0.40;;;20.40;58.80;20.30;99688.00;;;;342904;28;84655;-87
2021/05/29 00:08:04;;;;;;;1.27;0.30;;;20.40;58.70;20.30;99686.00;;;;340000;28;96190;-87
2021/05/29 00:08:16;;;;;;;1.60;0.40;;;20.40;58.70;20.10;99684.00;;;;344340;28;86676;-87
2021/05/29 00:08:28;;;;;;;1.40;0.40;;;20.40;58.90;20.20;99672.00;;;;340921;28;97811;-87
2021/05/29 00:08:40;;;;;;;1.23;0.50;;;20.40;58.90;20.20;99685.00;;;;338733;28;84733;-87
2021/05/29 00:08:52;;;;;;;0.88;0.40;;;20.40;59.80;20.30;99689.00;;;;342253;28;94473;-87
2021/05/29 00:09:04;;;;;;;1.00;0.40;;;20.40;59.10;20.30;99686.00;;;;341576;28;83442;-87
2021/05/29 00:09:16;;;;;;;2.03;0.50;;;20.30;59.10;20.30;99688.00;;;;339342;28;94765;-87
2021/05/29 00:09:27;;;;;;;1.77;0.47;;;20.40;59.70;20.30;99694.00;;;;343195;28;83633;-87
2021/05/29 00:09:40;;;;;;;1.60;0.50;;;20.30;59.20;20.40;99684.00;;;;341703;28;97773;-87
2021/05/29 00:09:51;;;;;;;0.85;0.30;;;20.40;59.50;20.30;99691.00;;;;342691;28;83811;-87
2021/05/29 00:10:04;;;;;;;1.65;0.35;;;20.30;59.50;20.40;99690.00;;;;343488;28;94157;-87
2021/05/29 00:10:16;;;;;;;1.45;0.35;;;20.30;59.20;20.40;99681.00;;;;341654;28;83469;-87
2021/05/29 00:10:28;;;;;;;0.85;0.40;;;20.30;59.10;20.50;99681.00;;;;342378;28;94031;-87
2021/05/29 00:10:42;;;;;;;7.00;0.60;;;20.30;59.10;20.50;99682.00;;;;341331;28;85110;-87
2021/05/29 00:10:55;;;;;;;6.85;0.50;;;20.40;59.10;20.40;99691.00;;;;340333;28;95971;-87
2021/05/29 00:11:08;;;;;;;1.83;0.40;;;20.40;59.30;20.40;99681.00;;;;341653;28;83965;-87
2021/05/29 00:11:20;;;;;;;2.58;0.57;;;20.40;59.20;20.40;99687.00;;;;340847;28;95794;-88
2021/05/29 00:11:32;;;;;;;1.65;0.50;;;20.40;59.00;20.50;99686.00;;;;341653;28;84865;-87
2021/05/29 00:11:44;;;;;;;1.42;0.43;;;20.40;59.00;20.40;99684.00;;;;342239;28;95845;-87
2021/05/29 00:11:56;;;;;;;0.90;0.40;;;20.40;59.10;20.40;99683.00;;;;339079;28;83781;-87
2021/05/29 00:12:10;;;;;;;0.90;0.40;;;20.40;59.20;20.50;99675.00;;;;339533;28;96331;-87
2021/05/29 00:12:21;;;;;;;0.85;0.30;;;20.40;59.10;20.50;99678.00;;;;340457;28;82387;-87
2021/05/29 00:12:33;;;;;;;1.45;0.45;;;20.40;59.10;20.40;99683.00;;;;343586;28;97653;-87
2021/05/29 00:12:45;;;;;;;1.38;0.40;;;20.40;59.00;20.50;99685.00;;;;342545;28;85248;-87
2021/05/29 00:13:00;;;;;;;1.00;0.20;;;20.40;58.90;20.50;99686.00;;;;340932;28;97437;-87
2021/05/29 00:13:12;;;;;;;1.00;0.20;;;20.40;59.00;20.40;99684.00;;;;343934;28;83731;-87
2021/05/29 00:13:25;;;;;;;2.03;0.30;;;20.40;58.90;20.40;99682.00;;;;340756;28;94567;-87
2021/05/29 00:13:38;;;;;;;2.30;0.30;;;20.40;59.00;20.50;99681.00;;;;341439;28;83845;-87
2021/05/29 00:13:49;;;;;;;2.20;0.50;;;20.40;58.80;20.60;99683.00;;;;340854;28;94459;-87
2021/05/29 00:14:01;;;;;;;1.67;0.50;;;20.40;59.00;20.30;99688.00;;;;339622;28;83478;-86
2021/05/29 00:14:13;;;;;;;2.22;0.40;;;20.40;59.70;20.40;99683.00;;;;339615;28;95297;-86
2021/05/29 00:14:25;;;;;;;2.28;0.30;;;20.40;59.40;20.50;99686.00;;;;339117;28;82414;-87
2021/05/29 00:14:38;;;;;;;2.25;0.30;;;20.40;59.40;20.40;99682.00;;;;339503;28;96374;-87
2021/05/29 00:14:50;;;;;;;1.70;0.40;;;20.40;59.50;20.30;99683.00;;;;340327;28;84861;-87
2021/05/29 00:15:02;;;;;;;3.20;0.40;;;20.40;59.40;20.30;99681.00;;;;342136;28;96164;-87
2021/05/29 00:15:14;;;;;;;4.22;0.30;;;20.40;59.50;20.30;99678.00;;;;342897;28;85586;-87
2021/05/29 00:15:27;;;;;;;3.28;0.30;;;20.40;59.40;20.40;99688.00;;;;342347;28;95065;-87
2021/05/29 00:15:40;;;;;;;0.80;0.30;;;20.40;59.40;20.40;99681.00;;;;345158;28;85802;-87
2021/05/29 00:15:52;;;;;;;0.70;0.38;;;20.40;59.40;20.40;99686.00;;;;339567;28;94508;-87
2021/05/29 00:16:04;;;;;;;1.58;0.43;;;20.40;59.40;20.40;99682.00;;;;342821;28;84181;-87
2021/05/29 00:16:16;;;;;;;1.63;0.40;;;20.40;59.40;20.40;99678.00;;;;339630;28;97259;-87
2021/05/29 00:16:28;;;;;;;1.13;0.30;;;20.40;59.40;20.40;99682.00;;;;343690;28;84861;-87
2021/05/29 00:16:40;;;;;;;1.10;0.30;;;20.40;59.30;20.40;99680.00;;;;340742;28;97704;-87
2021/05/29 00:16:52;;;;;;;1.00;0.25;;;20.40;59.30;20.40;99678.00;;;;341601;28;85617;-87
2021/05/29 00:17:05;;;;;;;0.60;0.20;;;20.40;59.20;20.40;99676.00;;;;339593;28;97558;-87
2021/05/29 00:17:18;;;;;;;0.70;0.30;;;20.40;59.20;20.40;99679.00;;;;338945;28;83601;-87
2021/05/29 00:17:30;;;;;;;0.80;0.38;;;20.40;59.80;20.50;99675.00;;;;339536;28;96296;-87
2021/05/29 00:17:42;;;;;;;0.93;0.30;;;20.40;59.20;20.50;99680.00;;;;339999;28;82450;-87
2021/05/29 00:17:54;;;;;;;0.80;0.20;;;20.40;59.10;20.40;99678.00;;;;339465;28;93469;-87
2021/05/29 00:18:07;;;;;;;0.93;0.30;;;20.50;59.10;20.50;99672.00;;;;342767;28;83623;-88
2021/05/29 00:18:19;;;;;;;1.00;0.30;;;20.50;59.10;20.40;99686.00;;;;338374;28;96918;-87
2021/05/29 00:18:31;;;;;;;1.15;0.30;;;20.40;59.40;20.40;99688.00;;;;342788;28;83901;-87
2021/05/29 00:18:42;;;;;;;0.95;0.30;;;20.40;59.30;20.50;99688.00;;;;340074;28;94453;-87
2021/05/29 00:18:54;;;;;;;1.00;0.30;;;20.40;59.20;20.40;99680.00;;;;343147;28;84433;-85
2021/05/29 00:19:06;;;;;;;1.00;0.30;;;20.50;59.50;20.20;99678.00;;;;341920;28;96705;-87
2021/05/29 00:19:18;;;;;;;2.05;0.30;;;20.40;59.70;20.30;99688.00;;;;342973;28;84476;-87
2021/05/29 00:19:30;;;;;;;3.10;0.38;;;20.40;59.30;20.40;99684.00;;;;342243;28;96243;-87
2021/05/29 00:19:42;;;;;;;2.85;0.40;;;20.40;59.60;20.40;99687.00;;;;342971;28;83371;-87
2021/05/29 00:19:54;;;;;;;2.10;0.40;;;20.40;59.40;20.20;99683.00;;;;341968;28;94668;-87
2021/05/29 00:20:06;;;;;;;2.13;0.40;;;20.40;59.50;20.30;99685.00;;;;343002;28;83221;-88
2021/05/29 00:20:18;;;;;;;1.98;0.40;;;20.40;59.40;20.30;99691.00;;;;340457;28;95794;-87
2021/05/29 00:20:30;;;;;;;1.38;0.30;;;20.40;60.10;20.00;99689.00;;;;342757;28;83575;-87
2021/05/29 00:20:42;;;;;;;1.36;0.20;;;20.40;59.90;20.00;99687.00;;;;340972;28;95051;-87
2021/05/29 00:20:55;;;;;;;1.25;0.30;;;20.40;59.70;20.10;99689.00;;;;342933;28;84755;-87
2021/05/29 00:21:06;;;;;;;0.70;0.30;;;20.40;59.80;20.20;99690.00;;;;343530;28;96438;-87
2021/05/29 00:21:18;;;;;;;0.90;0.40;;;20.40;59.80;20.10;99685.00;;;;342614;28;83433;-87
2021/05/29 00:21:30;;;;;;;1.05;0.35;;;20.40;59.90;20.20;99686.00;;;;342381;28;93937;-86
2021/05/29 00:21:42;;;;;;;1.58;0.43;;;20.30;59.70;20.20;99683.00;;;;340772;28;82558;-87
2021/05/29 00:21:54;;;;;;;1.50;0.40;;;20.30;59.80;20.30;99686.00;;;;340288;28;94255;-87
2021/05/29 00:22:06;;;;;;;1.35;0.40;;;20.30;59.90;20.10;99686.00;;;;344132;28;83463;-87
2021/05/29 00:22:18;;;;;;;1.90;0.40;;;20.30;60.30;20.10;99679.00;;;;339556;28;96682;-87
2021/05/29 00:22:30;;;;;;;1.48;0.35;;;20.30;59.90;20.10;99687.00;;;;342975;28;83364;-87
2021/05/29 00:22:42;;;;;;;2.03;0.30;;;20.30;59.90;20.10;99687.00;;;;340886;28;94082;-87
2021/05/29 00:22:54;;;;;;;1.40;0.25;;;20.30;59.90;19.90;99685.00;;;;341669;28;85169;-87
2021/05/29 00:23:10;;;;;;;1.42;0.30;;;20.30;60.10;20.10;99686.00;;;;343492;28;96673;-87
2021/05/29 00:23:22;;;;;;;0.90;0.30;;;20.30;60.10;19.90;99692.00;;;;342895;28;84723;-87
2021/05/29 00:23:34;;;;;;;1.00;0.30;;;20.30;60.30;20.00;99691.00;;;;343640;28;96930;-87
2021/05/29 00:23:46;;;;;;;0.65;0.30;;;20.20;60.20;19.90;99682.00;;;;341180;28;83311;-87
2021/05/29 00:23:58;;;;;;;0.80;0.32;;;20.20;60.50;20.00;99690.00;;;;339196;28;96182;-87
2021/05/29 00:24:10;;;;;;;0.88;0.30;;;20.20;60.30;20.00;99690.00;;;;339995;28;83633;-87
2021/05/29 00:24:22;;;;;;;1.27;0.30;;;20.20;60.30;19.90;99678.00;;;;340806;28;95044;-87
2021/05/29 00:24:33;;;;;;;1.90;0.30;;;20.20;60.30;19.90;99682.00;;;;340290;28;83443;-87
2021/05/29 00:24:45;;;;;;;2.22;0.30;;;20.20;60.50;19.90;99689.00;;;;339124;28;93955;-87
2021/05/29 00:24:57;;;;;;;1.67;0.25;;;20.20;60.70;20.00;99687.00;;;;343031;28;83498;-87
2021/05/29 00:25:09;;;;;;;1.55;0.30;;;20.10;60.50;20.00;99685.00;;;;340435;28;94367;-87
2021/05/29 00:25:21;;;;;;;1.58;0.30;;;20.10;60.20;20.00;99690.00;;;;340836;28;85162;-87
2021/05/29 00:25:34;;;;;;;1.65;0.40;;;20.20;60.50;20.10;99691.00;;;;340963;28;94802;-87
2021/05/29 00:25:46;;;;;;;0.77;0.30;;;20.10;60.40;20.20;99694.00;;;;342958;28;84550;-87
2021/05/29 00:25:58;;;;;;;2.00;0.60;;;20.20;60.50;20.20;99686.00;;;;340835;28;95623;-87
2021/05/29 00:26:10;;;;;;;2.20;0.60;;;20.20;60.60;20.10;99690.00;;;;341722;28;82371;-87
2021/05/29 00:26:22;;;;;;;2.10;0.55;;;20.10;61.00;20.00;99693.00;;;;342648;28;93622;-87
2021/05/29 00:26:34;;;;;;;1.10;0.40;;;20.10;60.70;20.00;99691.00;;;;342577;28;84937;-87
2021/05/29 00:26:46;;;;;;;0.95;0.45;;;20.20;61.00;20.00;99690.00;;;;342939;28;97929;-87
2021/05/29 00:26:59;;;;;;;0.88;0.38;;;20.10;60.70;20.00;99682.00;;;;342845;28;84735;-87
2021/05/29 00:27:11;;;;;;;2.35;0.40;;;20.10;60.60;20.00;99689.00;;;;342111;28;97932;-87
2021/05/29 00:27:23;;;;;;;2.53;0.52;;;20.10;60.80;20.00;99691.00;;;;344343;28;84003;-87
2021/05/29 00:27:35;;;;;;;3.47;0.60;;;20.10;60.60;20.00;99691.00;;;;342017;28;97727;-87
2021/05/29 00:27:47;;;;;;;2.67;0.65;;;20.20;60.60;20.00;99687.00;;;;342886;28;83693;-87
2021/05/29 00:27:59;;;;;;;2.03;0.47;;;20.10;60.50;20.00;99685.00;;;;339267;28;97319;-87
2021/05/29 00:28:11;;;;;;;1.45;0.43;;;20.10;60.50;19.90;99686.00;;;;340048;28;84351;-87
2021/05/29 00:28:23;;;;;;;2.00;0.40;;;20.20;60.60;20.00;99694.00;;;;340940;28;96828;-87
2021/05/29 00:28:36;;;;;;;1.60;0.35;;;20.20;60.50;20.00;99694.00;;;;341008;28;83697;-87
2021/05/29 00:28:47;;;;;;;1.02;0.40;;;20.10;60.70;20.00;99691.00;;;;340851;28;93033;-88
2021/05/29 00:28:59;;;;;;;1.10;0.40;;;20.10;60.40;20.00;99687.00;;;;341784;28;85319;-87
2021/05/29 00:29:11;;;;;;;0.88;0.30;;;20.20;60.50;20.00;99685.00;;;;340815;28;94025;-86
2021/05/29 00:29:23;;;;;;;1.20;0.50;;;20.10;60.60;20.00;99679.00;;;;344341;28;83415;-87
2021/05/29 00:29:35;;;;;;;1.20;0.40;;;20.10;60.60;20.00;99685.00;;;;342344;28;94472;-87
2021/05/29 00:29:47;;;;;;;1.02;0.20;;;20.20;60.60;20.00;99686.00;;;;341644;28;83397;-87
2021/05/29 00:29:59;;;;;;;1.25;0.30;;;20.10;60.70;20.00;99690.00;;;;340813;28;94328;-87
2021/05/29 00:30:12;;;;;;;2.08;0.40;;;20.10;60.70;19.90;99686.00;;;;341552;28;84703;-88
2021/05/29 00:30:24;;;;;;;2.25;0.50;;;20.10;60.70;19.90;99686.00;;;;336908;28;97133;-87
2021/05/29 00:30:38;;;;;;;1.80;0.40;;;20.10;60.70;19.90;99694.00;;;;341199;28;83527;-88
2021/05/29 00:30:50;;;;;;;1.88;0.32;;;20.10;60.70;20.00;99691.00;;;;338016;28;96913;-87
2021/05/29 00:31:02;;;;;;;1.73;0.30;;;20.10;60.70;20.00;99689.00;;;;341741;28;82490;-87
2021/05/29 00:31:14;;;;;;;2.10;0.38;;;20.10;60.70;19.80;99685.00;;;;343229;28;97162;-87
2021/05/29 00:31:26;;;;;;;2.70;0.40;;;20.20;60.90;19.90;99684.00;;;;340908;28;83476;-87
2021/05/29 00:31:38;;;;;;;2.53;0.30;;;20.10;60.70;19.90;99686.00;;;;339336;28;95638;-87
2021/05/29 00:31:50;;;;;;;1.30;0.28;;;20.10;60.70;20.00;99685.00;;;;340226;28;83352;-87
2021/05/29 00:32:02;;;;;;;1.02;0.20;;;20.10;60.80;20.00;99693.00;;;;340236;28;98086;-87
2021/05/29 00:32:14;;;;;;;3.00;0.28;;;20.10;60.70;19.90;99691.00;;;;340049;28;84426;-87
2021/05/29 00:32:26;;;;;;;2.70;0.30;;;20.10;60.90;20.10;99688.00;;;;341090;28;93821;-87
2021/05/29 00:32:39;;;;;;;0.90;0.30;;;20.10;60.70;20.10;99681.00;;;;341278;28;84536;-87
2021/05/29 00:32:51;;;;;;;1.48;0.30;;;20.10;60.60;20.10;99687.00;;;;341018;28;94895;-87
2021/05/29 00:33:04;;;;;;;1.65;0.40;;;20.10;60.70;20.10;99688.00;;;;340504;28;83228;-87
2021/05/29 00:33:16;;;;;;;1.83;0.35;;;20.10;60.80;20.10;99684.00;;;;340335;28;97382;-87
2021/05/29 00:33:27;;;;;;;1.52;0.32;;;20.10;60.70;19.90;99682.00;;;;342794;28;83851;-87
2021/05/29 00:33:39;;;;;;;1.27;0.30;;;20.10;60.80;20.00;99682.00;;;;341807;28;96922;-87
2021/05/29 00:33:52;;;;;;;1.40;0.30;;;20.10;60.90;20.00;99681.00;;;;340503;28;82382;-87
2021/05/29 00:34:03;;;;;;;1.55;0.32;;;20.10;61.20;19.80;99682.00;;;;341451;28;97658;-87
2021/05/29 00:34:15;;;;;;;2.70;0.40;;;20.10;61.30;19.80;99678.00;;;;340291;28;83332;-87
2021/05/29 00:34:27;;;;;;;2.47;0.40;;;20.00;61.00;19.90;99684.00;;;;340680;28;96176;-87
2021/05/29 00:34:40;;;;;;;1.77;0.30;;;20.10;61.40;20.00;99679.00;;;;342518;28;85314;-87
2021/05/29 00:34:52;;;;;;;1.45;0.30;;;20.10;62.00;20.00;99688.00;;;;340588;28;95196;-87
2021/05/29 00:35:05;;;;;;;0.95;0.22;;;20.10;61.30;20.00;99690.00;;;;340313;28;83768;-86
2021/05/29 00:35:17;;;;;;;0.73;0.20;;;20.10;61.20;20.00;99681.00;;;;340882;28;94470;-87
2021/05/29 00:35:29;;;;;;;0.90;0.20;;;20.10;61.30;19.90;99679.00;;;;341382;28;84789;-87
2021/05/29 00:35:41;;;;;;;2.17;0.30;;;20.10;61.10;20.00;99681.00;;;;342253;28;96718;-87
2021/05/29 00:35:54;;;;;;;2.25;0.30;;;20.10;60.90;20.00;99684.00;;;;341666;28;82381;-87
2021/05/29 00:36:06;;;;;;;1.63;0.30;;;20.10;61.20;20.10;99686.00;;;;340883;28;97553;-87
2021/05/29 00:36:18;;;;;;;1.00;0.30;;;20.10;61.00;20.00;99681.00;;;;341662;28;83357;-87
2021/05/29 00:36:30;;;;;;;1.02;0.50;;;20.10;61.30;19.90;99681.00;;;;341056;28;92243;-87
2021/05/29 00:36:42;;;;;;;1.02;0.40;;;20.10;61.40;19.90;99677.00;;;;343029;28;84061;-86
2021/05/29 00:36:54;;;;;;;1.08;0.32;;;20.10;61.20;20.00;99686.00;;;;342878;28;94413;-87
2021/05/29 00:37:06;;;;;;;0.80;0.30;;;20.10;61.00;20.10;99680.00;;;;341580;28;83346;-87
2021/05/29 00:37:18;;;;;;;0.63;0.30;;;20.10;61.00;20.10;99684.00;;;;339420;28;97899;-87
2021/05/29 00:37:30;;;;;;;0.80;0.40;;;20.10;61.00;20.20;99677.00;;;;341852;28;85392;-87
2021/05/29 00:37:42;;;;;;;0.85;0.40;;;20.10;61.00;20.20;99679.00;;;;340558;28;95093;-87
2021/05/29 00:37:53;;;;;;;0.85;0.40;;;20.10;61.10;20.10;99684.00;;;;341642;28;83528;-87
2021/05/29 00:38:05;;;;;;;0.88;0.30;;;20.10;60.90;20.00;99683.00;;;;341969;28;97739;-87
2021/05/29 00:38:17;;;;;;;1.10;0.30;;;20.10;61.20;20.10;99682.00;;;;342359;28;83680;-87
2021/05/29 00:38:30;;;;;;;1.08;0.30;;;20.10;61.40;20.00;99681.00;;;;342340;28;92485;-87
2021/05/29 00:38:47;;;;;;;1.33;0.30;;;20.10;61.30;20.00;99681.00;;;;343945;28;83629;-86
2021/05/29 00:38:59;;;;;;;1.30;0.38;;;20.10;61.20;20.10;99687.00;;;;342284;28;97039;-87
2021/05/29 00:39:11;;;;;;;1.20;0.30;;;20.10;61.00;20.10;99682.00;;;;340613;28;83458;-88
2021/05/29 00:39:23;;;;;;;1.00;0.38;;;20.10;61.10;20.00;99682.00;;;;339283;28;94859;-87
2021/05/29 00:39:35;;;;;;;0.75;0.30;;;20.10;61.20;20.00;99684.00;;;;339920;28;82706;-87
2021/05/29 00:39:47;;;;;;;0.75;0.35;;;20.10;61.30;20.00;99680.00;;;;339373;28;93852;-87
2021/05/29 00:39:59;;;;;;;1.20;0.40;;;20.10;61.30;20.10;99686.00;;;;343084;28;83450;-87
2021/05/29 00:40:12;;;;;;;3.30;0.40;;;20.10;61.30;20.10;99678.00;;;;342319;28;93300;-87
2021/05/29 00:40:24;;;;;;;3.08;0.38;;;20.10;61.30;19.90;99681.00;;;;340321;28;83423;-87
2021/05/29 00:40:36;;;;;;;0.90;0.35;;;20.10;61.50;19.90;99687.00;;;;342534;28;97115;-87
2021/05/29 00:40:48;;;;;;;0.90;0.30;;;20.10;61.60;19.80;99692.00;;;;341620;28;83715;-87
2021/05/29 00:41:07;;;;;;;1.10;0.55;;;20.10;61.40;19.90;99672.00;;;;343620;28;97874;-87
2021/05/29 00:41:19;;;;;;;1.02;0.60;;;20.10;61.40;20.00;99683.00;;;;341529;28;83418;-87
2021/05/29 00:41:31;;;;;;;0.90;0.50;;;20.10;61.90;20.00;99684.00;;;;342340;28;96708;-87
2021/05/29 00:41:43;;;;;;;0.90;0.40;;;20.10;61.60;20.00;99681.00;;;;342906;28;85222;-87
2021/05/29 00:41:54;;;;;;;0.80;0.32;;;20.10;61.70;20.00;99679.00;;;;338158;28;96726;-87
2021/05/29 00:42:07;;;;;;;0.70;0.30;;;20.10;61.80;20.00;99680.00;;;;341470;28;82608;-86
2021/05/29 00:42:19;;;;;;;0.73;0.30;;;20.10;61.60;20.10;99684.00;;;;342160;28;95502;-87
2021/05/29 00:42:30;;;;;;;0.95;0.35;;;20.10;62.00;20.00;99682.00;;;;341542;28;84976;-87
2021/05/29 00:42:42;;;;;;;1.38;0.40;;;20.10;61.50;20.00;99683.00;;;;338303;28;92983;-87
2021/05/29 00:42:55;;;;;;;1.45;0.40;;;20.10;61.30;20.00;99675.00;;;;340292;28;85255;-87
2021/05/29 00:43:07;;;;;;;1.35;0.40;;;20.10;61.30;20.10;99679.00;;;;340819;28;96137;-87
2021/05/29 00:43:19;;;;;;;1.45;0.50;;;20.10;61.30;20.10;99680.00;;;;342844;28;82934;-87
2021/05/29 00:43:31;;;;;;;1.38;0.50;;;20.10;61.40;20.10;99677.00;;;;343570;28;97591;-87
2021/05/29 00:43:43;;;;;;;0.95;0.40;;;20.10;61.40;20.10;99681.00;;;;342852;28;85079;-87
2021/05/29 00:43:55;;;;;;;0.82;0.30;;;20.10;62.00;20.10;99677.00;;;;343627;28;94578;-87
2021/05/29 00:44:07;;;;;;;0.77;0.30;;;20.10;61.30;20.10;99677.00;;;;343781;28;83490;-86
2021/05/29 00:44:22;;;;;;;1.10;0.50;;;20.10;61.20;19.90;99682.00;;;;338171;28;97427;-87
2021/05/29 00:44:47;;;;;;;1.15;0.47;;;20.10;61.30;20.10;99681.00;;;;341673;28;83738;-87
2021/05/29 00:44:59;;;;;;;4.20;0.50;;;20.10;61.20;20.20;99681.00;;;;340943;28;95550;-86
2021/05/29 00:45:11;;;;;;;4.30;0.50;;;20.10;61.20;20.20;99674.00;;;;340351;28;83402;-87
2021/05/29 00:45:23;;;;;;;2.88;0.45;;;20.10;61.30;20.20;99678.00;;;;337874;28;94741;-87
2021/05/29 00:45:35;;;;;;;1.05;0.35;;;20.10;61.40;20.10;99676.00;;;;340107;28;84558;-87
2021/05/29 00:45:48;;;;;;;1.25;0.30;;;20.10;61.30;20.10;99672.00;;;;340042;28;97971;-87
2021/05/29 00:46:00;;;;;;;1.50;0.43;;;20.10;61.10;20.20;99683.00;;;;340503;28;84312;-87
2021/05/29 00:46:12;;;;;;;1.20;0.40;;;20.20;61.10;20.20;99681.00;;;;342243;28;96119;-87
2021/05/29 00:46:24;;;;;;;0.93;0.30;;;20.10;61.00;20.20;99680.00;;;;342918;28;84965;-87
2021/05/29 00:46:35;;;;;;;1.13;0.30;;;20.10;61.00;20.20;99680.00;;;;341016;28;94467;-88
2021/05/29 00:46:47;;;;;;;2.45;0.40;;;20.10;61.00;20.20;99682.00;;;;340493;28;83373;-88
2021/05/29 00:47:00;;;;;;;2.10;0.47;;;20.10;61.00;20.20;99673.00;;;;339758;28;92940;-88
2021/05/29 00:47:12;;;;;;;1.75;0.40;;;20.10;61.20;20.20;99679.00;;;;342811;28;82508;-87
2021/05/29 00:47:28;;;;;;;1.30;0.40;;;20.20;61.10;20.30;99674.00;;;;343528;28;94039;-87
2021/05/29 00:47:40;;;;;;;2.17;0.40;;;20.10;61.10;20.30;99678.00;;;;342987;28;83262;-87
2021/05/29 00:47:52;;;;;;;1.98;0.40;;;20.10;61.30;20.30;99684.00;;;;344019;28;94591;-87
2021/05/29 00:48:05;;;;;;;0.90;0.40;;;20.20;61.20;20.30;99684.00;;;;344036;28;85190;-87
2021/05/29 00:48:17;;;;;;;1.20;0.60;;;20.20;61.20;20.30;99684.00;;;;342301;28;96125;-88
2021/05/29 00:48:30;;;;;;;1.05;0.50;;;20.20;61.20;20.20;99673.00;;;;341737;28;83328;-87
2021/05/29 00:48:42;;;;;;;0.80;0.40;;;20.20;61.10;20.10;99678.00;;;;340413;28;97530;-87
2021/05/29 00:48:53;;;;;;;1.00;0.40;;;20.20;61.10;19.80;99683.00;;;;341749;28;84630;-87
2021/05/29 00:49:06;;;;;;;2.90;0.40;;;20.20;61.30;19.60;99684.00;;;;339555;28;94415;-87
2021/05/29 00:49:17;;;;;;;3.78;0.50;;;20.20;61.70;19.60;99681.00;;;;341315;28;84621;-87
2021/05/29 00:49:29;;;;;;;6.20;0.50;;;20.10;61.40;19.60;99681.00;;;;341066;28;96463;-87
2021/05/29 00:49:41;;;;;;;5.82;0.47;;;20.10;61.20;19.80;99678.00;;;;343669;28;84294;-87
2021/05/29 00:49:55;;;;;;;4.90;0.40;;;20.10;61.30;19.70;99685.00;;;;340870;28;94459;-87
2021/05/29 00:50:10;;;;;;;0.90;0.30;;;20.10;61.40;19.70;99679.00;;;;343024;28;83363;-87
2021/05/29 00:50:22;;;;;;;1.30;0.40;;;20.10;61.40;19.70;99682.00;;;;340291;28;93462;-87
2021/05/29 00:50:34;;;;;;;1.58;0.40;;;20.10;61.40;19.70;99679.00;;;;341890;28;85147;-87
2021/05/29 00:50:49;;;;;;;1.50;0.35;;;20.00;61.40;19.90;99676.00;;;;342341;28;94061;-88
2021/05/29 00:51:02;;;;;;;1.48;0.38;;;20.00;61.40;19.90;99688.00;;;;342975;28;83676;-87
2021/05/29 00:51:14;;;;;;;0.98;0.30;;;20.00;61.70;19.90;99683.00;;;;341399;28;97466;-87
2021/05/29 00:51:26;;;;;;;0.85;0.30;;;20.00;61.70;19.90;99686.00;;;;341578;28;83662;-87
2021/05/29 00:51:37;;;;;;;0.90;0.32;;;20.00;61.80;20.00;99687.00;;;;342488;28;97208;-88
2021/05/29 00:51:49;;;;;;;1.02;0.40;;;20.00;61.60;20.00;99686.00;;;;341095;28;83249;-87
2021/05/29 00:52:01;;;;;;;1.20;0.40;;;20.00;61.60;20.00;99686.00;;;;340967;28;94593;-88
2021/05/29 00:52:14;;;;;;;0.98;0.40;;;20.00;61.60;20.00;99687.00;;;;343061;28;83421;-87
2021/05/29 00:52:26;;;;;;;1.20;0.60;;;20.00;61.70;20.00;99683.00;;;;338107;28;95861;-87
2021/05/29 00:52:38;;;;;;;1.45;0.70;;;20.00;61.60;19.90;99691.00;;;;339059;28;84488;-87
2021/05/29 00:52:51;;;;;;;1.67;0.40;;;20.00;61.60;20.10;99692.00;;;;342222;28;98614;-87
2021/05/29 00:53:03;;;;;;;1.65;0.40;;;20.00;61.60;20.10;99676.00;;;;344318;28;83670;-87
2021/05/29 00:53:18;;;;;;;1.20;0.40;;;20.00;61.60;20.00;99686.00;;;;340747;28;96212;-87
2021/05/29 00:53:31;;;;;;;1.88;0.40;;;20.00;61.60;20.00;99694.00;;;;342414;28;85807;-87
2021/05/29 00:53:43;;;;;;;2.90;0.40;;;20.00;61.60;19.90;99692.00;;;;342215;28;96679;-87
2021/05/29 00:53:55;;;;;;;2.75;0.40;;;20.00;61.70;19.90;99697.00;;;;340199;28;85317;-87
2021/05/29 00:54:07;;;;;;;1.10;0.35;;;20.00;61.60;20.00;99689.00;;;;340983;28;93831;-87
2021/05/29 00:54:19;;;;;;;1.80;0.40;;;20.00;61.70;20.00;99693.00;;;;340487;28;83481;-87
2021/05/29 00:54:33;;;;;;;1.80;0.40;;;20.00;62.60;20.00;99694.00;;;;342177;28;96718;-87
2021/05/29 00:54:45;;;;;;;0.88;0.40;;;20.00;62.20;19.90;99694.00;;;;342303;28;82524;-87
2021/05/29 00:54:57;;;;;;;0.95;0.40;;;20.00;62.10;19.90;99688.00;;;;341070;28;96194;-87
2021/05/29 00:55:11;;;;;;;1.33;0.40;;;20.00;62.00;19.70;99687.00;;;;339332;28;84154;-87